Time;durP1;ratioP1;P1;durP2;ratioP2;P2;SDS_P1;SDS_P2;PMS_P1;PMS_P2;Temp;Humidity;BMP_temperature;BMP_pressure;BME280_temperature;BME280_humidity;BME280_pressure;Samples;Min_cycle;Max_cycle;Signal;HPM_P1;HPM_P2
2021/01/28 00:01:35;;;;;;;4.53;3.30;;;;;;;-0.39;91.74;98228.62;1752964;82;21198;-46
2021/01/28 00:04:03;;;;;;;3.05;2.65;;;;;;;-0.40;91.65;98213.64;1752981;80;21191;-43
2021/01/28 00:06:31;;;;;;;7.35;4.05;;;;;;;-0.40;91.67;98208.92;1751698;82;21239;-41
2021/01/28 00:08:58;;;;;;;4.78;3.37;;;;;;;-0.41;91.65;98199.04;1747265;81;21684;-46
2021/01/28 00:11:27;;;;;;;5.85;3.35;;;;;;;-0.44;91.66;98191.31;1747398;82;21190;-41
2021/01/28 00:13:57;;;;;;;5.80;3.85;;;;;;;-0.43;91.75;98190.47;1747460;81;21168;-46
2021/01/28 00:16:25;;;;;;;4.47;3.75;;;;;;;-0.45;91.84;98181.89;1747386;82;21579;-41
2021/01/28 00:18:52;;;;;;;7.60;4.37;;;;;;;-0.46;91.85;98178.03;1747466;81;21210;-46
2021/01/28 00:21:21;;;;;;;5.55;3.50;;;;;;;-0.47;92.00;98168.57;1747273;82;21234;-45
2021/01/28 00:23:49;;;;;;;5.70;3.30;;;;;;;-0.47;92.11;98172.42;1747328;81;21209;-46
2021/01/28 00:26:17;;;;;;;4.35;3.60;;;;;;;-0.48;92.22;98167.72;1747179;82;21166;-46
2021/01/28 00:28:45;;;;;;;4.45;3.60;;;;;;;-0.48;92.22;98185.70;1747306;81;21289;-41
2021/01/28 00:31:13;;;;;;;5.10;3.87;;;;;;;-0.48;92.29;98189.98;1747255;82;21191;-42
2021/01/28 00:33:41;;;;;;;5.37;3.80;;;;;;;-0.47;92.39;98181.42;1747373;81;21188;-45
2021/01/28 00:36:10;;;;;;;5.95;4.28;;;;;;;-0.46;92.44;98184.45;1747194;82;21135;-46
2021/01/28 00:38:38;;;;;;;5.55;3.87;;;;;;;-0.44;92.39;98175.05;1747413;81;21627;-45
2021/01/28 00:41:08;;;;;;;7.85;3.67;;;;;;;-0.44;92.40;98180.18;1747462;82;21591;-41
2021/01/28 00:43:37;;;;;;;5.92;3.83;;;;;;;-0.44;92.39;98182.75;1747443;81;21163;-41
2021/01/28 00:46:06;;;;;;;5.55;4.20;;;;;;;-0.45;92.37;98188.31;1747161;82;21206;-46
2021/01/28 00:48:34;;;;;;;5.00;3.58;;;;;;;-0.45;92.50;98199.02;1747281;81;21182;-46
2021/01/28 00:51:03;;;;;;;4.72;3.50;;;;;;;-0.44;92.56;98202.87;1747326;82;21298;-41
2021/01/28 00:53:31;;;;;;;5.15;3.50;;;;;;;-0.43;92.60;98193.46;1747338;81;21625;-47
2021/01/28 00:55:59;;;;;;;5.83;4.55;;;;;;;-0.43;92.60;98185.33;1747285;82;21610;-42
2021/01/28 00:58:29;;;;;;;5.53;4.37;;;;;;;-0.44;92.60;98179.75;1735936;81;21238;-41
2021/01/28 01:00:57;;;;;;;8.08;4.03;;;;;;;-0.44;92.65;98175.90;1747245;82;21301;-42
2021/01/28 01:03:25;;;;;;;5.92;4.22;;;;;;;-0.44;92.76;98173.76;1747167;81;21606;-47
2021/01/28 01:05:53;;;;;;;5.50;3.87;;;;;;;-0.43;92.86;98183.19;1747372;82;21611;-46
2021/01/28 01:08:30;;;;;;;5.75;3.67;;;;;;;-0.43;92.93;98180.61;1747260;81;21211;-42
2021/01/28 01:11:03;;;;;;;4.75;3.67;;;;;;;-0.43;93.02;98186.61;1746140;82;21163;-46
2021/01/28 01:13:32;;;;;;;6.78;4.42;;;;;;;-0.40;93.06;98194.79;1747153;81;21214;-46
2021/01/28 01:16:03;;;;;;;5.65;4.00;;;;;;;-0.38;93.10;98196.52;1745470;82;21168;-41
2021/01/28 01:18:32;;;;;;;6.40;3.40;;;;;;;-0.36;93.06;98196.52;1747196;81;21144;-46
2021/01/28 01:21:01;;;;;;;8.48;4.17;;;;;;;-0.38;93.04;98195.66;1747210;82;21187;-41
2021/01/28 01:23:30;;;;;;;7.45;4.50;;;;;;;-0.39;93.09;98202.51;1726114;81;21780;-41
2021/01/28 01:26:03;;;;;;;;;;;;;;;-0.41;93.12;98196.89;1748812;81;21195;-41
2021/01/28 01:28:31;;;;;;;6.25;4.10;;;;;;;-0.44;93.32;98184.89;1747365;81;20177;-46
2021/01/28 01:31:01;;;;;;;9.88;4.28;;;;;;;-0.46;93.53;98178.89;1746510;82;21174;-41
2021/01/28 01:33:31;;;;;;;6.30;4.08;;;;;;;-0.47;93.67;98187.84;1747392;81;21629;-41
2021/01/28 01:36:01;;;;;;;6.60;4.58;;;;;;;-0.47;93.87;98186.56;1746600;82;21171;-41
2021/01/28 01:38:29;;;;;;;8.25;4.55;;;;;;;-0.46;94.04;98181.88;1747168;81;21171;-41
2021/01/28 01:40:58;;;;;;;7.95;4.92;;;;;;;-0.46;94.15;98176.32;1747227;82;21159;-46
2021/01/28 01:43:26;;;;;;;9.10;4.72;;;;;;;-0.47;94.30;98169.43;1747375;82;21198;-46
2021/01/28 01:46:05;;;;;;;8.48;4.20;;;;;;;-0.48;94.40;98170.71;1747320;82;21179;-41
2021/01/28 01:48:51;;;;;;;8.20;4.58;;;;;;;-0.50;94.61;98160.85;1747315;81;21175;-45
2021/01/28 01:51:29;;;;;;;6.25;4.78;;;;;;;-0.52;94.82;98163.81;1726852;82;21146;-46
2021/01/28 01:54:11;;;;;;;9.78;5.28;;;;;;;-0.53;95.04;98156.53;1747452;81;21147;-45
2021/01/28 01:56:45;;;;;;;4.85;4.15;;;;;;;-0.54;95.22;98156.09;1747083;82;21183;-46
2021/01/28 01:59:32;;;;;;;5.22;4.33;;;;;;;-0.54;95.38;98160.80;1746327;81;21199;-46
2021/01/28 02:02:21;;;;;;;6.97;4.37;;;;;;;-0.53;95.50;98162.95;1747323;82;21194;-42
2021/01/28 02:05:22;;;;;;;6.65;4.17;;;;;;;-0.54;95.64;98156.95;1747204;81;21350;-45
2021/01/28 02:08:11;;;;;;;7.65;4.58;;;;;;;-0.53;95.77;98179.65;1671722;84;21195;-44
2021/01/28 02:10:57;;;;;;;6.55;4.80;;;;;;;-0.51;95.90;98175.41;1671796;86;21249;-46
2021/01/28 02:13:27;;;;;;;9.38;5.17;;;;;;;-0.50;95.98;98167.27;1671709;84;21174;-43
2021/01/28 02:16:06;;;;;;;7.42;4.85;;;;;;;-0.47;96.04;98169.43;1818913;79;23386;-44
2021/01/28 02:18:36;;;;;;;6.85;5.15;;;;;;;-0.50;96.17;98174.55;1785452;80;21624;-46
2021/01/28 02:21:27;;;;;;;6.25;4.10;;;;;;;-0.49;96.28;98177.56;1759180;81;21309;-42
2021/01/28 02:24:22;;;;;;;7.72;4.53;;;;;;;-0.49;96.34;98181.84;1760706;80;21212;-41
2021/01/28 02:26:50;;;;;;;6.22;3.90;;;;;;;-0.47;96.33;98180.13;1731603;81;21203;-40
2021/01/28 02:29:35;;;;;;;5.80;4.25;;;;;;;-0.48;96.31;98180.56;1674442;84;21664;-41
2021/01/28 02:32:03;;;;;;;8.35;4.85;;;;;;;-0.48;96.34;98175.84;1674390;86;22059;-43
2021/01/28 02:34:43;;;;;;;8.20;4.17;;;;;;;-0.44;96.40;98157.06;1760938;79;23040;-40
2021/01/28 02:37:17;;;;;;;6.15;4.20;;;;;;;-0.49;96.39;98160.00;1722851;83;21756;-45
2021/01/28 02:39:46;;;;;;;8.23;4.28;;;;;;;-0.51;96.43;98149.72;1718921;82;21243;-42
2021/01/28 02:42:26;;;;;;;6.12;4.25;;;;;;;-0.51;96.55;98154.00;1722692;83;22071;-42
2021/01/28 02:44:56;;;;;;;6.25;4.53;;;;;;;-0.52;96.63;98149.67;1722077;82;21131;-45
2021/01/28 02:47:42;;;;;;;5.08;4.05;;;;;;;-0.51;96.73;98148.44;1722878;83;21187;-46
2021/01/28 02:50:12;;;;;;;5.80;4.10;;;;;;;-0.47;96.87;98151.88;1718286;82;21196;-46
2021/01/28 02:52:41;;;;;;;5.42;4.25;;;;;;;-0.47;96.90;98148.02;1722918;83;21571;-45
2021/01/28 02:55:12;;;;;;;6.25;3.77;;;;;;;-0.46;96.91;98128.79;1722813;82;21232;-41
2021/01/28 02:57:40;;;;;;;7.28;4.35;;;;;;;-0.46;96.95;98129.22;1694424;83;22826;-41
2021/01/28 03:00:15;;;;;;;5.50;3.90;;;;;;;-0.46;96.99;98151.91;1722829;82;21181;-41
2021/01/28 03:02:43;;;;;;;7.78;4.60;;;;;;;-0.46;97.03;98159.62;1694242;83;21170;-41
2021/01/28 03:05:13;;;;;;;7.33;4.05;;;;;;;-0.47;97.06;98151.45;1722779;82;21167;-42
2021/01/28 03:07:42;;;;;;;5.05;3.80;;;;;;;-0.45;97.16;98155.34;1722786;83;21238;-43
2021/01/28 03:10:12;;;;;;;6.90;4.12;;;;;;;-0.44;97.16;98173.33;1722830;82;21641;-42
2021/01/28 03:12:41;;;;;;;5.75;4.08;;;;;;;-0.43;97.25;98172.91;1721384;83;21610;-42
2021/01/28 03:15:13;;;;;;;5.47;3.80;;;;;;;-0.42;97.23;98175.48;1720860;82;21606;-42
2021/01/28 03:17:42;;;;;;;4.53;3.40;;;;;;;-0.41;97.18;98164.78;1722668;83;21128;-41
2021/01/28 03:20:13;;;;;;;4.22;3.60;;;;;;;-0.41;97.06;98178.91;1722808;82;21167;-42
2021/01/28 03:22:42;;;;;;;4.67;3.55;;;;;;;-0.42;97.03;98185.76;1722827;83;21167;-46
2021/01/28 03:25:28;;;;;;;6.85;4.12;;;;;;;-0.41;97.04;98191.33;1722920;82;21220;-43
2021/01/28 03:27:57;;;;;;;5.15;3.95;;;;;;;-0.38;97.04;98186.66;1722767;83;21202;-42
2021/01/28 03:30:29;;;;;;;4.90;3.90;;;;;;;-0.37;97.00;98185.81;1722887;82;21189;-46
2021/01/28 03:32:57;;;;;;;6.10;4.30;;;;;;;-0.36;96.90;98190.09;1720713;83;21148;-46
2021/01/28 03:35:26;;;;;;;9.78;3.92;;;;;;;-0.34;96.93;98172.58;1710180;82;21167;-42
2021/01/28 03:37:56;;;;;;;15.00;9.43;;;;;;;-0.34;96.78;98153.31;1709945;83;21211;-41
2021/01/28 03:40:26;;;;;;;38.15;20.25;;;;;;;-0.36;96.60;98142.56;1690018;84;21631;-42
2021/01/28 03:42:56;;;;;;;7.90;5.27;;;;;;;-0.38;96.52;98141.27;1710267;84;21179;-45
2021/01/28 03:45:26;;;;;;;4.80;3.87;;;;;;;-0.39;96.43;98142.13;1709538;82;21638;-42
2021/01/28 03:47:58;;;;;;;4.00;3.60;;;;;;;-0.38;96.50;98139.98;1709550;82;21579;-42
2021/01/28 03:50:39;;;;;;;4.35;3.27;;;;;;;-0.36;96.56;98138.70;1706503;84;21567;-41
2021/01/28 03:53:10;;;;;;;4.33;3.30;;;;;;;-0.35;96.42;98136.56;1708439;84;21199;-46
2021/01/28 03:55:59;;;;;;;5.35;3.55;;;;;;;-0.35;96.34;98126.29;1692835;84;21176;-41
2021/01/28 03:58:29;;;;;;;7.47;3.30;;;;;;;-0.35;96.29;98127.18;1709437;82;21199;-41
2021/01/28 04:00:58;;;;;;;5.50;3.25;;;;;;;-0.35;96.20;98134.00;1706554;82;21643;-41
2021/01/28 04:03:26;;;;;;;4.65;3.60;;;;;;;-0.36;96.21;98119.01;1709532;82;21199;-41
2021/01/28 04:06:02;;;;;;;6.67;4.00;;;;;;;-0.35;96.12;98105.73;1697077;84;21666;-45
2021/01/28 04:08:40;;;;;;;4.85;3.27;;;;;;;-0.36;95.94;98115.16;1684942;85;21636;-46
2021/01/28 04:11:29;;;;;;;6.00;3.55;;;;;;;-0.33;95.94;98119.05;1818909;79;23020;-44
2021/01/28 04:13:58;;;;;;;4.60;3.95;;;;;;;-0.37;95.87;98127.57;1782124;80;21178;-39
2021/01/28 04:16:26;;;;;;;5.95;3.55;;;;;;;-0.36;95.92;98120.72;1760936;81;21348;-41
2021/01/28 04:18:54;;;;;;;4.60;3.40;;;;;;;-0.36;95.82;98125.86;1761023;80;21210;-40
2021/01/28 04:21:30;;;;;;;4.92;3.10;;;;;;;-0.36;95.83;98128.00;1759452;81;21316;-45
2021/01/28 04:23:59;;;;;;;5.25;3.12;;;;;;;-0.32;95.91;98135.33;1760937;80;21232;-41
2021/01/28 04:26:30;;;;;;;4.42;3.60;;;;;;;-0.31;95.73;98144.33;1749914;81;21210;-46
2021/01/28 04:28:59;;;;;;;4.20;2.95;;;;;;;-0.30;95.68;98143.90;1761033;80;21570;-46
2021/01/28 04:31:32;;;;;;;4.90;3.47;;;;;;;-0.30;95.60;98134.48;1760984;81;21349;-42
2021/01/28 04:34:02;;;;;;;4.72;3.27;;;;;;;-0.29;95.49;98125.05;1760948;80;21158;-46
2021/01/28 04:36:31;;;;;;;6.22;3.50;;;;;;;-0.29;95.39;98112.20;1761145;81;21206;-47
2021/01/28 04:39:18;;;;;;;4.78;3.40;;;;;;;-0.30;95.31;98114.34;1760889;80;21151;-46
2021/01/28 04:41:47;;;;;;;7.50;3.62;;;;;;;-0.31;95.31;98119.05;1761145;81;21147;-46
2021/01/28 04:44:15;;;;;;;6.58;3.47;;;;;;;-0.32;95.25;98118.20;1760964;80;21692;-41
2021/01/28 04:46:51;;;;;;;5.53;3.33;;;;;;;-0.34;95.18;98116.05;1758194;81;21621;-41
2021/01/28 04:49:38;;;;;;;4.80;2.77;;;;;;;-0.35;95.10;98126.29;1761181;80;21171;-41
2021/01/28 04:52:23;;;;;;;4.15;3.50;;;;;;;-0.36;95.21;98129.28;1760917;81;21159;-41
2021/01/28 04:55:00;;;;;;;4.53;3.40;;;;;;;-0.31;95.38;98122.48;1741619;79;28872;-44
2021/01/28 04:57:30;;;;;;;4.65;3.17;;;;;;;-0.28;95.30;98107.53;1722153;83;21143;-40
2021/01/28 04:59:57;;;;;;;5.55;3.50;;;;;;;-0.25;95.10;98107.97;1722940;82;21646;-41
2021/01/28 05:02:28;;;;;;;3.85;3.33;;;;;;;-0.27;95.04;98097.25;1722820;83;21203;-40
2021/01/28 05:05:01;;;;;;;4.70;3.35;;;;;;;-0.29;94.94;98105.78;1722917;82;21213;-46
2021/01/28 05:07:34;;;;;;;6.03;3.58;;;;;;;-0.31;95.05;98105.78;1705217;83;21175;-40
2021/01/28 05:10:32;;;;;;;5.90;3.35;;;;;;;-0.30;95.12;98119.48;1722905;82;21206;-46
2021/01/28 05:13:33;;;;;;;4.97;3.33;;;;;;;-0.30;95.08;98132.33;1722916;82;21328;-45
2021/01/28 05:16:23;;;;;;;5.22;3.02;;;;;;;-0.30;95.00;98127.20;1718437;83;21661;-41
2021/01/28 05:19:04;;;;;;;6.45;3.45;;;;;;;-0.28;94.89;98130.23;1770238;79;23123;-44
2021/01/28 05:21:51;;;;;;;4.83;3.20;;;;;;;-0.33;94.71;98135.75;1722839;83;21775;-41
2021/01/28 05:24:56;;;;;;;3.83;2.80;;;;;;;-0.32;94.67;98135.33;1786482;78;23130;-41
2021/01/28 05:27:34;;;;;;;5.55;2.90;;;;;;;-0.36;94.71;98155.41;1742082;80;21233;-41
2021/01/28 05:30:07;;;;;;;5.40;3.70;;;;;;;-0.38;94.66;98152.83;1740630;81;21611;-48
2021/01/28 05:32:46;;;;;;;5.92;3.75;;;;;;;-0.39;94.70;98143.84;1734887;81;21173;-46
2021/01/28 05:35:33;;;;;;;5.10;3.00;;;;;;;-0.40;94.81;98143.41;1759957;81;21235;-46
2021/01/28 05:38:25;;;;;;;5.33;3.40;;;;;;;-0.39;94.84;98143.41;1794404;79;28117;-42
2021/01/28 05:40:59;;;;;;;4.45;3.75;;;;;;;-0.38;94.74;98142.98;1777338;80;21597;-43
2021/01/28 05:43:43;;;;;;;6.10;3.65;;;;;;;-0.35;94.68;98166.12;1766197;80;21204;-41
2021/01/28 05:46:25;;;;;;;7.35;3.70;;;;;;;-0.34;94.71;98166.59;1771205;79;21169;-42
2021/01/28 05:49:13;;;;;;;5.00;2.80;;;;;;;-0.30;94.89;98165.31;1800127;78;22902;-39
2021/01/28 05:52:30;;;;;;;5.15;3.60;;;;;;;-0.33;94.94;98177.30;1771067;79;21514;-42
2021/01/28 05:55:17;;;;;;;6.30;4.58;;;;;;;-0.28;95.03;98181.63;1787107;78;28085;-45
2021/01/28 05:58:03;;;;;;;6.25;4.00;;;;;;;-0.27;94.96;98182.48;1776631;79;21701;-47
2021/01/28 06:00:51;;;;;;;6.05;3.77;;;;;;;-0.23;94.81;98173.08;1747327;81;21587;-47
2021/01/28 06:03:47;;;;;;;4.58;3.33;;;;;;;-0.25;94.78;98164.08;1718376;81;21932;-42
2021/01/28 06:07:05;;;;;;;4.90;3.08;;;;;;;-0.26;94.78;98162.36;1715028;83;21524;-45
2021/01/28 06:10:02;;;;;;;3.47;2.77;;;;;;;-0.22;94.89;98147.84;1774222;78;28503;-46
2021/01/28 06:13:21;;;;;;;5.10;2.80;;;;;;;-0.21;94.77;98160.70;1776140;79;21154;-45
2021/01/28 06:16:40;;;;;;;4.83;2.50;;;;;;;-0.19;94.40;98160.70;1776706;79;21157;-43
2021/01/28 06:19:48;;;;;;;3.50;2.67;;;;;;;-0.24;94.29;98152.09;1780879;79;21141;-47
2021/01/28 06:23:00;;;;;;;4.03;2.33;;;;;;;-0.29;94.36;98148.19;1777222;78;21323;-43
2021/01/28 06:26:16;;;;;;;4.40;2.45;;;;;;;-0.29;94.56;98142.66;1802498;76;25355;-48
2021/01/28 06:29:42;;;;;;;2.75;2.15;;;;;;;-0.34;94.67;98137.89;1683286;83;21216;-43
2021/01/28 06:32:30;;;;;;;4.90;2.77;;;;;;;-0.32;94.77;98147.75;1666621;84;21828;-43
2021/01/28 06:35:46;;;;;;;2.15;1.72;;;;;;;-0.30;94.77;98140.05;1677577;83;21201;-41
2021/01/28 06:39:01;;;;;;;3.15;1.80;;;;;;;-0.24;94.63;98136.67;1791536;78;23107;-46
2021/01/28 06:42:39;;;;;;;2.30;1.75;;;;;;;-0.28;94.57;98135.80;1757373;80;21134;-47
2021/01/28 06:49:26;;;;;;;3.60;1.97;;;;;;;-0.25;94.59;98137.52;1744812;80;21155;-46
2021/01/28 06:52:15;;;;;;;3.40;1.70;;;;;;;-0.21;94.56;98152.12;1766869;79;21188;-40
2021/01/28 06:55:00;;;;;;;2.22;2.00;;;;;;;-0.18;94.62;98157.28;1750047;80;21292;-46
2021/01/28 06:58:02;;;;;;;2.25;2.10;;;;;;;-0.13;94.70;98152.61;1765672;79;21133;-47
2021/01/28 07:00:50;;;;;;;5.00;2.15;;;;;;;-0.02;94.48;98154.85;1801376;77;23337;-45
2021/01/28 07:03:45;;;;;;;3.55;1.77;;;;;;;-0.03;94.13;98162.56;1771866;79;21172;-43
2021/01/28 07:07:07;;;;;;;2.85;2.25;;;;;;;0.04;94.09;98159.19;1800425;77;23015;-40
2021/01/28 07:10:05;;;;;;;6.50;2.40;;;;;;;0.04;94.07;98166.04;1790660;78;21680;-46
2021/01/28 07:12:44;;;;;;;2.33;2.00;;;;;;;0.09;93.76;98156.66;1804684;78;21268;-46
2021/01/28 07:15:31;;;;;;;4.10;2.12;;;;;;;0.15;93.67;98154.13;1798573;78;23138;-42
2021/01/28 07:18:26;;;;;;;2.95;2.12;;;;;;;0.15;93.59;98155.41;1748431;79;21162;-42
2021/01/28 07:21:01;;;;;;;4.65;1.70;;;;;;;0.17;93.38;98158.42;1772350;79;21178;-47
2021/01/28 07:23:39;;;;;;;3.27;2.17;;;;;;;0.20;93.10;98148.17;1772052;79;21174;-47
2021/01/28 07:26:18;;;;;;;3.60;2.50;;;;;;;0.23;93.03;98145.63;1770571;79;21184;-41
2021/01/28 07:28:49;;;;;;;2.40;1.92;;;;;;;0.29;92.94;98140.06;1766278;79;21200;-46
2021/01/28 07:31:43;;;;;;;3.33;1.42;;;;;;;0.34;92.95;98137.95;1742144;80;21154;-43
2021/01/28 07:34:19;;;;;;;1.57;1.45;;;;;;;0.42;92.71;98129.02;1768073;79;21197;-47
2021/01/28 07:36:51;;;;;;;2.50;1.40;;;;;;;0.45;92.13;98125.16;1767814;79;21150;-48
2021/01/28 07:39:41;;;;;;;1.37;1.27;;;;;;;0.52;91.92;98121.77;1792694;77;22929;-43
2021/01/28 07:42:32;;;;;;;3.37;1.75;;;;;;;0.53;91.84;98126.95;1777027;78;21153;-42
2021/01/28 07:45:34;;;;;;;2.33;1.62;;;;;;;0.57;91.48;98124.38;1779391;78;21146;-42
2021/01/28 07:48:05;;;;;;;2.35;1.00;;;;;;;0.57;90.91;98129.52;1766057;78;21161;-46
2021/01/28 07:50:43;;;;;;;1.40;1.30;;;;;;;0.57;90.66;98112.79;1796735;78;23505;-46
2021/01/28 07:53:47;;;;;;;1.77;1.37;;;;;;;0.52;90.65;98114.94;1766324;79;21583;-41
2021/01/28 07:56:37;;;;;;;2.27;1.87;;;;;;;0.54;90.61;98121.38;1774133;80;21143;-47
2021/01/28 07:59:16;;;;;;;1.70;1.55;;;;;;;0.53;90.51;98122.23;1753647;79;21157;-42
2021/01/28 08:01:46;;;;;;;1.95;1.70;;;;;;;0.55;90.57;98125.66;1770911;79;21733;-41
2021/01/28 08:04:31;;;;;;;1.87;1.20;;;;;;;0.57;90.38;98120.52;1721713;80;22118;-42
2021/01/28 08:06:59;;;;;;;1.80;1.37;;;;;;;0.58;90.11;98116.68;1771443;79;21371;-41
2021/01/28 08:09:28;;;;;;;1.45;1.07;;;;;;;0.58;90.11;98109.36;1769622;80;21152;-47
2021/01/28 08:11:58;;;;;;;1.75;1.45;;;;;;;0.59;89.90;98109.82;1765936;80;21296;-46
2021/01/28 08:14:32;;;;;;;2.30;1.85;;;;;;;0.57;89.89;98114.08;1773104;79;21161;-46
2021/01/28 08:17:03;;;;;;;1.72;1.55;;;;;;;0.55;89.93;98115.80;1739570;80;21490;-47
2021/01/28 08:19:32;;;;;;;2.30;1.40;;;;;;;0.57;90.10;98121.80;1747183;80;21174;-46
2021/01/28 08:22:08;;;;;;;3.42;1.67;;;;;;;0.59;90.02;98128.69;1769783;79;21190;-42
2021/01/28 08:24:39;;;;;;;2.10;1.70;;;;;;;0.57;89.72;98116.22;1771440;79;21182;-42
2021/01/28 08:27:14;;;;;;;2.30;1.40;;;;;;;0.56;89.88;98118.80;1769089;79;21150;-42
2021/01/28 08:29:44;;;;;;;1.35;1.02;;;;;;;0.57;89.87;98106.36;1731894;81;21910;-41
2021/01/28 08:32:23;;;;;;;2.00;1.40;;;;;;;0.59;89.71;98105.95;1715212;81;21167;-42
2021/01/28 08:35:00;;;;;;;1.17;1.07;;;;;;;0.62;89.73;98123.55;1711279;83;21722;-43
2021/01/28 08:37:30;;;;;;;2.52;1.12;;;;;;;0.68;89.78;98131.72;1719798;81;21780;-42
2021/01/28 08:40:01;;;;;;;1.95;1.40;;;;;;;0.76;89.23;98123.20;1734686;81;21162;-46
2021/01/28 08:42:35;;;;;;;1.45;1.32;;;;;;;0.79;89.04;98113.33;1699965;81;21187;-42
2021/01/28 08:45:25;;;;;;;2.40;1.77;;;;;;;0.86;89.00;98118.07;1711955;81;21339;-40
2021/01/28 08:48:02;;;;;;;5.05;2.25;;;;;;;0.87;88.62;98124.53;1714848;82;21690;-41
2021/01/28 08:50:31;;;;;;;6.33;3.60;;;;;;;0.88;88.73;98126.68;1715558;82;21202;-41
2021/01/28 08:53:04;;;;;;;4.37;2.20;;;;;;;0.91;88.72;98124.10;1709084;83;21195;-42
2021/01/28 08:55:37;;;;;;;2.22;1.92;;;;;;;0.92;88.39;98125.81;1661340;83;21358;-41
2021/01/28 08:58:30;;;;;;;2.33;1.65;;;;;;;0.92;88.42;98126.67;1713588;83;21168;-46
2021/01/28 09:01:01;;;;;;;2.45;1.40;;;;;;;0.97;88.41;98125.41;1710107;83;21210;-41
2021/01/28 09:03:34;;;;;;;2.20;1.70;;;;;;;1.02;88.25;98132.30;1709594;83;21590;-47
2021/01/28 09:06:02;;;;;;;1.42;1.30;;;;;;;1.03;88.15;98122.86;1708365;83;21215;-42
2021/01/28 09:08:36;;;;;;;3.08;1.30;;;;;;;1.04;88.00;98106.55;1707992;83;21147;-41
2021/01/28 09:11:24;;;;;;;1.90;1.00;;;;;;;1.03;87.60;98101.82;1706520;83;21392;-43
2021/01/28 09:14:30;;;;;;;1.52;1.17;;;;;;;0.95;87.50;98082.92;1710267;83;21654;-46
2021/01/28 09:17:27;;;;;;;3.05;1.90;;;;;;;0.85;87.81;98070.88;1707676;83;21202;-41
2021/01/28 09:20:34;;;;;;;2.10;1.50;;;;;;;0.81;88.28;98080.72;1705255;83;21155;-41
2021/01/28 09:24:52;;;;;;;3.15;1.55;;;;;;;0.75;88.57;98079.41;1706754;83;21575;-42
2021/01/28 09:28:04;;;;;;;2.45;2.20;;;;;;;0.70;89.15;98092.72;1706488;83;21170;-42
2021/01/28 09:31:34;;;;;;;6.17;2.70;;;;;;;0.71;89.82;98108.16;1677300;84;21173;-46
2021/01/28 09:34:29;;;;;;;4.20;2.52;;;;;;;0.82;90.02;98109.49;1703909;83;22043;-42
2021/01/28 09:37:04;;;;;;;5.10;2.27;;;;;;;0.89;90.03;98105.22;1684315;84;21160;-42
2021/01/28 09:39:48;;;;;;;5.03;2.30;;;;;;;0.93;90.21;98118.13;1667405;85;21230;-47
2021/01/28 09:42:29;;;;;;;4.65;2.55;;;;;;;1.00;90.31;98114.70;1687245;83;21382;-48
2021/01/28 09:45:12;;;;;;;3.27;2.47;;;;;;;1.10;90.23;98115.58;1680030;84;21596;-47
2021/01/28 09:48:05;;;;;;;4.85;2.40;;;;;;;1.27;90.03;98119.48;1784693;78;23061;-43
2021/01/28 09:53:09;;;;;;;2.20;1.92;;;;;;;1.49;89.88;98115.24;1792932;78;23175;-48
2021/01/28 09:55:38;;;;;;;4.53;2.65;;;;;;;1.56;89.36;98118.25;1766669;79;21158;-47
2021/01/28 09:58:07;;;;;;;6.35;4.53;;;;;;;1.58;88.68;98108.39;1769051;79;21517;-47
2021/01/28 10:00:35;;;;;;;14.28;6.72;;;;;;;1.54;88.11;98101.51;1768244;79;21205;-46
2021/01/28 10:03:05;;;;;;;9.03;5.50;;;;;;;1.45;87.94;98094.18;1768060;79;21146;-40
2021/01/28 10:05:35;;;;;;;7.28;4.33;;;;;;;1.38;88.08;98100.19;1766297;80;21508;-46
2021/01/28 10:08:04;;;;;;;5.70;4.20;;;;;;;1.35;88.33;98098.91;1767278;80;21697;-46
2021/01/28 10:10:41;;;;;;;4.40;3.15;;;;;;;1.36;88.42;98092.90;1768570;80;21218;-41
2021/01/28 10:13:16;;;;;;;6.75;3.60;;;;;;;1.38;88.29;98085.59;1736227;79;21178;-41
2021/01/28 10:15:45;;;;;;;11.68;5.33;;;;;;;1.32;87.84;98086.44;1737349;80;21217;-43
2021/01/28 10:18:14;;;;;;;5.47;3.40;;;;;;;1.25;88.19;98086.44;1764314;79;21287;-42
2021/01/28 10:20:44;;;;;;;5.40;3.87;;;;;;;1.26;88.52;98097.16;1770802;79;21828;-47
2021/01/28 10:23:15;;;;;;;3.80;2.70;;;;;;;1.26;88.41;98098.02;1769526;79;21232;-41
2021/01/28 10:26:30;;;;;;;3.67;2.22;;;;;;;1.24;88.30;98097.60;1737624;80;21199;-47
2021/01/28 10:30:32;;;;;;;6.85;3.05;;;;;;;1.22;88.44;98100.18;1763478;79;21117;-40
2021/01/28 10:33:56;;;;;;;4.20;2.60;;;;;;;1.15;88.43;98093.70;1763400;79;21713;-46
2021/01/28 10:37:45;;;;;;;3.60;2.67;;;;;;;1.12;88.88;98102.72;1758895;79;21159;-47
2021/01/28 10:41:07;;;;;;;;;;;;;;;1.12;88.87;98095.00;1766578;79;21761;-48
2021/01/28 10:44:41;;;;;;;5.05;2.52;;;;;;;1.15;89.06;98085.97;1765539;79;20174;-43
2021/01/28 10:51:54;;;;;;;3.50;2.92;;;;;;;1.17;88.71;98094.59;1761782;79;21458;-42
2021/01/28 10:54:29;;;;;;;4.12;3.17;;;;;;;1.11;88.84;98092.85;1751425;80;21188;-47
2021/01/28 10:57:03;;;;;;;4.37;2.52;;;;;;;1.12;89.04;98093.28;1752088;80;21190;-43
2021/01/28 10:59:46;;;;;;;2.40;2.10;;;;;;;1.17;89.13;98101.88;1752735;80;21182;-47
2021/01/28 11:02:29;;;;;;;3.75;1.90;;;;;;;1.24;88.97;98113.91;1752971;80;21217;-44
2021/01/28 11:05:18;;;;;;;1.80;1.70;;;;;;;1.29;89.26;98113.50;1749788;80;21737;-41
2021/01/28 11:12:55;;;;;;;3.40;2.05;;;;;;;1.63;89.20;98110.98;1752345;80;21185;-44
2021/01/28 11:17:13;;;;;;;4.97;2.35;;;;;;;1.83;88.36;98090.35;1747444;80;21214;-49
2021/01/28 11:32:58;;;;;;;2.33;2.12;;;;;;;2.09;86.71;98105.39;1751252;80;21692;-47
2021/01/28 11:36:21;;;;;;;2.22;1.70;;;;;;;2.15;86.29;98113.56;1748291;80;21493;-42
2021/01/28 11:39:15;;;;;;;1.77;1.52;;;;;;;2.20;85.84;98119.98;1748710;80;21244;-49
2021/01/28 11:41:56;;;;;;;4.70;1.60;;;;;;;2.21;85.49;98108.39;1752637;80;21129;-42
2021/01/28 11:44:29;;;;;;;1.98;1.70;;;;;;;2.19;85.28;98110.52;1678293;84;21210;-48
2021/01/28 11:46:57;;;;;;;2.85;1.85;;;;;;;2.13;85.07;98112.24;1682553;83;21600;-48
2021/01/28 11:49:26;;;;;;;4.45;3.17;;;;;;;2.05;85.04;98106.25;1701907;83;21192;-43
2021/01/28 11:51:54;;;;;;;3.50;2.98;;;;;;;1.97;85.10;98108.38;1688594;83;21203;-47
2021/01/28 11:54:24;;;;;;;3.65;2.60;;;;;;;1.92;85.42;98112.72;1697437;83;21348;-48
2021/01/28 11:56:53;;;;;;;2.72;2.40;;;;;;;1.91;85.62;98114.41;1760476;80;21224;-47
2021/01/28 11:59:23;;;;;;;2.90;2.20;;;;;;;1.88;85.53;98117.00;1756355;80;21526;-44
2021/01/28 12:02:00;;;;;;;2.08;1.87;;;;;;;1.78;85.27;98118.70;1758639;80;21312;-47
2021/01/28 12:04:32;;;;;;;2.15;1.77;;;;;;;1.69;85.75;98103.69;1686726;80;21187;-47
2021/01/28 12:07:00;;;;;;;1.82;1.72;;;;;;;1.64;85.89;98093.80;1759184;80;21945;-43
2021/01/28 12:09:29;;;;;;;2.92;1.80;;;;;;;1.51;85.88;98098.94;1758553;80;21556;-47
2021/01/28 12:11:59;;;;;;;2.35;2.00;;;;;;;1.39;86.40;98101.91;1752526;80;21198;-48
2021/01/28 12:14:27;;;;;;;2.08;1.87;;;;;;;1.36;86.90;98084.73;1752438;80;21642;-41
2021/01/28 12:16:56;;;;;;;2.42;1.92;;;;;;;1.33;87.03;98071.44;1760106;80;21179;-48
2021/01/28 12:19:26;;;;;;;2.30;1.82;;;;;;;1.29;87.15;98074.00;1760030;80;21739;-47
2021/01/28 12:21:54;;;;;;;3.22;2.00;;;;;;;1.24;87.32;98076.56;1759656;80;21147;-50
2021/01/28 12:24:22;;;;;;;2.15;1.85;;;;;;;1.21;87.56;98071.81;1756873;80;21354;-46
2021/01/28 12:26:50;;;;;;;3.40;2.50;;;;;;;1.15;87.69;98068.80;1761509;80;21470;-45
2021/01/28 12:29:18;;;;;;;2.90;2.60;;;;;;;1.13;88.03;98066.66;1755408;80;21210;-49
2021/01/28 12:31:46;;;;;;;4.05;3.40;;;;;;;1.13;88.30;98073.10;1757803;80;21140;-49
2021/01/28 12:34:14;;;;;;;5.58;3.83;;;;;;;1.18;88.42;98084.27;1759275;80;21710;-41
2021/01/28 12:36:43;;;;;;;5.72;4.70;;;;;;;1.19;88.39;98092.43;1760677;80;21186;-44
2021/01/28 12:39:12;;;;;;;4.85;4.33;;;;;;;1.18;88.38;98089.42;1757739;80;21595;-48
2021/01/28 12:41:43;;;;;;;5.20;4.07;;;;;;;1.16;88.46;98101.85;1723271;81;21593;-49
2021/01/28 12:44:13;;;;;;;5.50;4.25;;;;;;;1.14;88.71;98099.28;1693982;83;21819;-46
2021/01/28 12:46:43;;;;;;;4.42;3.25;;;;;;;1.11;88.72;98110.88;1695401;83;21195;-49
2021/01/28 12:49:11;;;;;;;4.08;3.35;;;;;;;1.06;88.81;98121.16;1693658;83;21215;-45
2021/01/28 12:51:39;;;;;;;3.92;3.08;;;;;;;1.06;89.03;98137.05;1757588;80;21170;-48
2021/01/28 12:54:07;;;;;;;3.98;3.52;;;;;;;1.07;89.17;98145.20;1715140;81;21212;-44
2021/01/28 12:56:37;;;;;;;4.95;3.22;;;;;;;1.10;89.25;98152.06;1751698;80;21320;-49
2021/01/28 12:59:04;;;;;;;3.50;3.20;;;;;;;1.13;89.36;98162.39;1733334;81;21184;-50
2021/01/28 13:01:32;;;;;;;4.97;3.35;;;;;;;1.18;89.51;98169.28;1716545;81;21174;-43
2021/01/28 13:04:01;;;;;;;3.02;2.60;;;;;;;1.25;89.73;98168.88;1750684;80;21203;-45
2021/01/28 13:06:29;;;;;;;3.52;2.70;;;;;;;1.33;89.64;98173.61;1752281;80;21187;-43